createdAt,value
2023-02-22T00:00:02.152Z,2.81
2023-02-22T00:15:02.347Z,2.81
2023-02-22T00:30:01.922Z,2.81
2023-02-22T00:45:02.035Z,2.81
2023-02-22T01:00:01.782Z,2.81
2023-02-22T01:15:02.289Z,2.81
2023-02-22T01:30:02.791Z,2.81
2023-02-22T01:45:01.354Z,2.81
2023-02-22T02:00:01.742Z,2.81
2023-02-22T02:15:02.236Z,2.81
2023-02-22T02:30:02.826Z,2.81
2023-02-22T02:45:02.147Z,2.81
2023-02-22T03:00:01.716Z,2.81
2023-02-22T03:15:02.123Z,2.81
2023-02-22T03:30:02.830Z,2.81
2023-02-22T03:45:02.012Z,2.81
2023-02-22T04:00:01.530Z,2.81
2023-02-22T04:15:02.250Z,2.81
2023-02-22T04:30:02.247Z,2.81
2023-02-22T04:45:02.585Z,2.81
2023-02-22T05:00:03.112Z,2.81
2023-02-22T05:15:01.513Z,2.81
2023-02-22T05:30:01.852Z,2.81
2023-02-22T05:45:02.355Z,2.81
2023-02-22T06:00:01.596Z,2.81
2023-02-22T06:15:02.120Z,2.81
2023-02-22T06:30:01.734Z,2.81
2023-02-22T06:45:02.249Z,2.81
2023-02-22T07:00:02.773Z,2.81
2023-02-22T07:15:01.933Z,2.81
2023-02-22T07:30:02.260Z,2.81
2023-02-22T07:45:01.932Z,2.81
2023-02-22T08:00:02.547Z,2.81
2023-02-22T08:15:03.103Z,2.81
2023-02-22T08:30:01.387Z,2.81
2023-02-22T08:45:01.921Z,2.81
2023-02-22T09:00:02.498Z,2.81
2023-02-22T09:15:03.037Z,2.81
2023-02-22T09:30:01.599Z,2.81
2023-02-22T09:45:01.960Z,2.81
2023-02-22T10:00:02.547Z,2.81
2023-02-22T10:15:03.059Z,2.81
2023-02-22T10:30:02.757Z,2.81
2023-02-22T10:45:01.968Z,2.81
2023-02-22T11:00:02.575Z,2.81
2023-02-22T11:15:01.479Z,2.81
2023-02-22T11:30:02.290Z,2.81
2023-02-22T11:45:02.114Z,2.81
2023-02-22T12:00:02.532Z,2.81
2023-02-22T12:15:01.961Z,18.94
2023-02-22T12:30:01.360Z,18.71
2023-02-22T12:45:02.168Z,18.65
2023-02-22T13:00:02.037Z,69.2
2023-02-22T13:15:02.066Z,28.7
2023-02-22T13:30:02.712Z,28.7
2023-02-22T13:45:01.343Z,33.7
2023-02-22T14:00:01.704Z,33.7
2023-02-22T14:15:02.017Z,33.7
2023-02-22T14:30:01.736Z,33.7
2023-02-22T14:45:02.231Z,33.7
2023-02-22T15:00:02.054Z,24.78
2023-02-22T15:15:02.195Z,17.79
2023-02-22T15:30:02.294Z,15.35
2023-02-22T15:45:01.596Z,14.6
2023-02-22T16:00:02.286Z,13.84
2023-02-22T16:15:01.334Z,13.14
2023-02-22T16:30:04.367Z,12.36
2023-02-22T16:45:02.056Z,11.5
2023-02-22T17:00:02.291Z,10.4
2023-02-22T17:15:01.675Z,9.48
2023-02-22T17:30:02.269Z,9.52
2023-02-22T17:45:01.359Z,9.13
2023-02-22T18:00:02.406Z,8.97
2023-02-22T18:15:01.656Z,8.71
2023-02-22T18:30:02.822Z,8.56
2023-02-22T18:45:01.472Z,8.21
2023-02-22T19:00:02.427Z,7.57
2023-02-22T19:15:01.885Z,7.48
2023-02-22T19:30:02.461Z,7.38
2023-02-22T19:45:01.565Z,7.7
2023-02-22T20:00:02.546Z,6.36
2023-02-22T20:15:02.155Z,6.3
2023-02-22T20:30:02.014Z,6.3
2023-02-22T20:45:02.559Z,6.3
2023-02-22T21:00:03.121Z,6.3
2023-02-22T21:15:01.455Z,6.3
2023-02-22T21:30:02.403Z,6.3
2023-02-22T21:45:08.794Z,6.3
2023-02-22T22:00:01.450Z,6.3
2023-02-22T22:15:02.146Z,6.3
2023-02-22T22:30:02.063Z,6.3
2023-02-22T22:45:02.537Z,6.3
2023-02-22T23:00:03.194Z,6.3
2023-02-22T23:15:01.960Z,6.3
2023-02-22T23:30:01.915Z,6.3
2023-02-22T23:45:02.507Z,6.3
